createdAt,value
2023-04-12T00:01:29.619Z,82.93
2023-04-12T00:04:34.757Z,82.89
2023-04-12T00:07:42.858Z,82.78
2023-04-12T00:10:46.171Z,82.79
2023-04-12T00:13:48.969Z,83.07
2023-04-12T00:16:52.218Z,83.23
2023-04-12T00:19:55.086Z,83.26
2023-04-12T00:22:58.514Z,83.49
2023-04-12T00:26:01.339Z,83.53
2023-04-12T00:29:04.136Z,83.84
2023-04-12T00:32:07.096Z,83.85
2023-04-12T00:35:10.005Z,84.05
2023-04-12T00:38:13.125Z,84.11
2023-04-12T00:41:16.045Z,84.25
2023-04-12T00:44:19.185Z,84.36
2023-04-12T00:47:22.596Z,84.20
2023-04-12T00:50:25.612Z,84.25
2023-04-12T00:53:28.707Z,84.19
2023-04-12T00:56:32.429Z,83.97
2023-04-12T00:59:35.367Z,84.07
2023-04-12T01:02:39.673Z,83.97
2023-04-12T01:06:00.663Z,83.93
2023-04-12T01:09:12.756Z,84.01
2023-04-12T01:12:32.351Z,83.92
2023-04-12T01:15:40.169Z,83.95
2023-04-12T01:18:50.609Z,84.01
2023-04-12T01:22:13.782Z,84.09
2023-04-12T01:25:40.732Z,84.10
2023-04-12T01:28:45.691Z,84.02
2023-04-12T01:31:56.010Z,84.23
2023-04-12T01:35:03.069Z,84.28
2023-04-12T01:38:07.109Z,84.15
2023-04-12T01:41:10.307Z,83.86
2023-04-12T01:44:14.924Z,83.83
2023-04-12T01:47:17.981Z,83.47
2023-04-12T01:50:32.821Z,83.56
2023-04-12T01:54:03.202Z,83.63
2023-04-12T01:57:09.045Z,83.76
2023-04-12T02:00:14.024Z,83.78
2023-04-12T02:03:18.488Z,83.50
2023-04-12T02:06:23.271Z,83.31
2023-04-12T02:09:26.172Z,83.16
2023-04-12T02:12:29.043Z,83.15
2023-04-12T02:15:31.898Z,83.01
2023-04-12T02:18:37.876Z,82.87
2023-04-12T02:21:45.628Z,83.05
2023-04-12T02:24:48.424Z,83.09
2023-04-12T02:27:51.422Z,82.89
2023-04-12T02:30:54.370Z,82.41
2023-04-12T02:33:57.564Z,81.99
2023-04-12T02:37:00.637Z,81.94
2023-04-12T02:40:06.180Z,81.93
2023-04-12T02:43:09.851Z,81.76
2023-04-12T02:46:19.688Z,81.81
2023-04-12T02:49:23.008Z,81.68
2023-04-12T02:52:26.176Z,81.77
2023-04-12T02:55:30.708Z,81.66
2023-04-12T02:58:34.562Z,81.49
2023-04-12T03:01:39.423Z,81.68
2023-04-12T03:04:47.261Z,81.49
2023-04-12T03:07:50.162Z,81.67
2023-04-12T03:10:53.016Z,81.62
2023-04-12T03:13:56.115Z,81.50
2023-04-12T03:16:59.139Z,81.43
2023-04-12T03:20:10.112Z,81.47
2023-04-12T03:23:13.122Z,81.57
2023-04-12T03:26:16.012Z,81.89
2023-04-12T03:29:18.990Z,81.54
2023-04-12T03:32:21.918Z,81.56
2023-04-12T03:35:24.789Z,81.57
2023-04-12T03:38:27.613Z,81.64
2023-04-12T03:41:30.352Z,81.88
2023-04-12T03:44:33.156Z,81.87
2023-04-12T03:47:37.208Z,81.68
2023-04-12T03:50:44.730Z,81.66
2023-04-12T03:53:47.912Z,81.71
2023-04-12T03:56:50.721Z,81.49
2023-04-12T03:59:53.555Z,81.45
2023-04-12T04:02:58.772Z,81.44
2023-04-12T04:06:02.300Z,81.62
2023-04-12T04:09:05.756Z,81.45
2023-04-12T04:12:09.154Z,81.31
2023-04-12T04:15:12.010Z,81.13
2023-04-12T04:18:14.868Z,81.42
2023-04-12T04:21:17.790Z,81.02
2023-04-12T04:24:22.532Z,80.92
2023-04-12T04:27:25.374Z,80.82
2023-04-12T04:30:28.332Z,80.80
2023-04-12T04:33:31.172Z,80.75
2023-04-12T04:36:35.640Z,80.52
2023-04-12T04:39:38.710Z,80.41
2023-04-12T04:42:43.039Z,80.03
2023-04-12T04:45:49.369Z,79.73
2023-04-12T04:48:55.262Z,79.48
2023-04-12T04:51:58.259Z,79.16
2023-04-12T04:55:02.040Z,79.00
2023-04-12T04:58:06.589Z,78.77
2023-04-12T05:01:10.877Z,78.46
2023-04-12T05:04:13.775Z,78.56
2023-04-12T05:07:16.799Z,77.97
2023-04-12T05:10:19.593Z,77.96
2023-04-12T05:13:22.580Z,78.03
2023-04-12T05:16:25.767Z,78.22
2023-04-12T05:19:29.074Z,78.20
2023-04-12T05:22:32.766Z,78.26
2023-04-12T05:25:35.914Z,78.00
2023-04-12T05:28:38.981Z,77.92
2023-04-12T05:31:41.824Z,77.75
2023-04-12T05:34:44.651Z,77.75
2023-04-12T05:37:47.501Z,77.26
2023-04-12T05:40:51.015Z,77.24
2023-04-12T05:43:53.891Z,77.18
2023-04-12T05:46:56.921Z,76.80
2023-04-12T05:49:59.752Z,75.68
2023-04-12T05:53:02.987Z,75.66
2023-04-12T05:56:06.237Z,76.20
2023-04-12T05:59:11.068Z,75.50
2023-04-12T06:02:14.041Z,75.78
2023-04-12T06:05:19.779Z,75.92
2023-04-12T06:08:22.781Z,75.70
2023-04-12T06:11:25.786Z,75.39
2023-04-12T06:14:28.606Z,74.97
2023-04-12T06:17:31.429Z,75.13
2023-04-12T06:20:34.309Z,75.13
2023-04-12T06:23:37.250Z,75.03
2023-04-12T06:26:40.469Z,75.17
2023-04-12T06:29:43.295Z,74.71
2023-04-12T06:32:46.347Z,74.84
2023-04-12T06:35:49.813Z,74.92
2023-04-12T06:38:52.672Z,75.10
2023-04-12T06:41:57.709Z,75.10
2023-04-12T06:45:00.555Z,75.33
2023-04-12T06:48:03.464Z,75.18
2023-04-12T06:51:06.571Z,75.13
2023-04-12T06:54:09.394Z,75.27
2023-04-12T06:57:12.330Z,74.85
2023-04-12T07:00:15.604Z,74.40
2023-04-12T07:03:18.685Z,74.86
2023-04-12T07:06:25.653Z,74.95
2023-04-12T07:09:32.451Z,74.57
2023-04-12T07:12:35.204Z,74.57
2023-04-12T07:15:38.242Z,74.69
2023-04-12T07:18:41.161Z,74.42
2023-04-12T07:21:43.926Z,74.47
2023-04-12T07:24:46.828Z,74.14
2023-04-12T07:27:51.699Z,74.11
2023-04-12T07:30:54.842Z,73.10
2023-04-12T07:33:57.779Z,72.23
2023-04-12T07:37:01.165Z,71.64
2023-04-12T07:40:04.468Z,70.55
2023-04-12T07:43:07.376Z,70.33
2023-04-12T07:46:10.600Z,69.26
2023-04-12T07:49:13.597Z,68.99
2023-04-12T07:52:16.491Z,69.21
2023-04-12T07:55:19.389Z,69.36
2023-04-12T07:58:23.663Z,69.02
2023-04-12T08:01:26.556Z,68.19
2023-04-12T08:04:29.541Z,67.64
2023-04-12T08:07:32.373Z,64.13
2023-04-12T08:10:35.296Z,64.66
2023-04-12T08:13:38.095Z,65.29
2023-04-12T08:16:41.108Z,65.23
2023-04-12T08:19:44.035Z,61.11
2023-04-12T08:22:47.333Z,60.21
2023-04-12T08:25:50.276Z,60.16
2023-04-12T08:28:53.154Z,61.79
2023-04-12T08:31:56.629Z,62.34
2023-04-12T08:35:00.324Z,60.54
2023-04-12T08:38:08.078Z,60.47
2023-04-12T08:41:11.181Z,56.88
2023-04-12T08:44:15.592Z,60.16
2023-04-12T08:47:18.514Z,58.97
2023-04-12T08:50:21.931Z,59.06
2023-04-12T08:53:24.980Z,56.15
2023-04-12T08:56:30.075Z,58.00
2023-04-12T08:59:36.856Z,58.94
2023-04-12T09:02:39.886Z,58.87
2023-04-12T09:05:43.122Z,59.22
2023-04-12T09:08:57.285Z,58.64
2023-04-12T09:12:10.608Z,58.51
2023-04-12T09:15:15.796Z,59.39
2023-04-12T09:18:19.078Z,58.93
2023-04-12T09:21:21.952Z,58.31
2023-04-12T09:24:24.822Z,57.16
2023-04-12T09:27:29.740Z,55.60
2023-04-12T09:30:42.282Z,53.52
2023-04-12T09:33:46.246Z,53.28
2023-04-12T09:36:49.098Z,56.01
2023-04-12T09:40:05.691Z,56.31
2023-04-12T09:43:08.665Z,55.88
2023-04-12T09:46:13.885Z,54.61
2023-04-12T09:49:16.979Z,54.19
2023-04-12T09:52:19.996Z,52.82
2023-04-12T09:55:28.543Z,52.59
2023-04-12T09:58:34.137Z,52.73
2023-04-12T10:01:40.388Z,52.99
2023-04-12T10:04:44.420Z,51.63
2023-04-12T10:07:47.985Z,51.51
2023-04-12T10:10:53.821Z,51.45
2023-04-12T10:13:57.444Z,50.41
2023-04-12T10:17:03.627Z,50.66
2023-04-12T10:20:07.391Z,47.40
2023-04-12T10:23:10.965Z,46.29
2023-04-12T10:26:16.178Z,48.22
2023-04-12T10:29:33.867Z,48.54
2023-04-12T10:32:37.613Z,49.48
2023-04-12T10:35:54.990Z,48.83
2023-04-12T10:39:11.242Z,48.50
2023-04-12T10:42:25.433Z,48.68
2023-04-12T10:45:31.670Z,48.73
2023-04-12T10:48:39.763Z,48.15
2023-04-12T10:52:04.360Z,48.16
2023-04-12T10:55:41.399Z,48.78
2023-04-12T10:58:53.240Z,49.64
2023-04-12T11:02:09.569Z,48.10
2023-04-12T11:05:14.580Z,48.30
2023-04-12T11:08:19.182Z,49.15
2023-04-12T11:11:22.984Z,48.70
2023-04-12T11:14:30.571Z,51.07
2023-04-12T11:17:36.235Z,50.90
2023-04-12T11:20:41.150Z,49.67
2023-04-12T11:23:44.064Z,51.41
2023-04-12T11:26:47.138Z,52.93
2023-04-12T11:29:55.740Z,52.84
2023-04-12T11:32:58.949Z,53.57
2023-04-12T11:36:12.332Z,52.21
2023-04-12T11:39:15.318Z,53.35
2023-04-12T11:42:21.337Z,52.25
2023-04-12T11:45:24.138Z,54.18
2023-04-12T11:48:28.356Z,52.16
2023-04-12T11:51:32.668Z,51.84
2023-04-12T11:54:35.670Z,51.77
2023-04-12T11:57:39.273Z,50.79
2023-04-12T12:00:45.691Z,52.17
2023-04-12T12:03:50.033Z,52.89
2023-04-12T12:06:54.064Z,53.05
2023-04-12T12:09:58.060Z,53.49
2023-04-12T12:13:01.202Z,52.74
2023-04-12T12:16:08.348Z,52.62
2023-04-12T12:19:11.685Z,51.40
2023-04-12T12:22:17.537Z,50.94
2023-04-12T12:25:20.953Z,51.25
2023-04-12T12:28:24.620Z,51.31
2023-04-12T12:31:28.562Z,51.14
2023-04-12T12:34:34.425Z,50.78
2023-04-12T12:37:37.471Z,49.37
2023-04-12T12:40:40.751Z,50.38
2023-04-12T12:43:50.907Z,51.32
2023-04-12T12:46:58.677Z,50.42
2023-04-12T12:50:06.596Z,51.38
2023-04-12T12:53:10.761Z,51.31
2023-04-12T12:56:14.553Z,50.90
2023-04-12T12:59:17.850Z,50.91
2023-04-12T13:02:21.018Z,50.39
2023-04-12T13:05:24.210Z,50.94
2023-04-12T13:08:27.992Z,50.16
2023-04-12T13:11:31.043Z,50.98
2023-04-12T13:14:33.929Z,51.64
2023-04-12T13:17:36.987Z,52.03
2023-04-12T13:20:40.021Z,50.65
2023-04-12T13:23:42.999Z,48.79
2023-04-12T13:26:46.205Z,48.71
2023-04-12T13:29:49.002Z,49.19
2023-04-12T13:32:51.874Z,49.28
2023-04-12T13:35:54.942Z,48.51
2023-04-12T13:38:58.081Z,48.11
2023-04-12T13:42:02.295Z,48.56
2023-04-12T13:45:07.097Z,47.66
2023-04-12T13:48:10.334Z,48.49
2023-04-12T13:51:13.662Z,47.55
2023-04-12T13:54:17.542Z,47.06
2023-04-12T13:57:20.745Z,47.73
2023-04-12T14:00:23.839Z,46.74
2023-04-12T14:03:26.866Z,48.44
2023-04-12T14:06:30.302Z,48.43
2023-04-12T14:09:33.964Z,48.49
2023-04-12T14:12:36.821Z,48.79
2023-04-12T14:15:39.677Z,48.11
2023-04-12T14:18:42.697Z,47.58
2023-04-12T14:21:46.939Z,47.00
2023-04-12T14:24:50.136Z,47.10
2023-04-12T14:27:53.356Z,46.95
2023-04-12T14:31:00.900Z,48.15
2023-04-12T14:34:04.819Z,47.73
2023-04-12T14:37:08.664Z,46.30
2023-04-12T14:40:11.637Z,47.35
2023-04-12T14:43:14.472Z,48.37
2023-04-12T14:46:17.901Z,47.85
2023-04-12T14:49:20.876Z,46.89
2023-04-12T14:52:24.075Z,46.46
2023-04-12T14:55:27.178Z,47.04
2023-04-12T14:58:30.839Z,46.87
2023-04-12T15:01:34.653Z,46.31
2023-04-12T15:04:37.845Z,45.64
2023-04-12T15:07:43.173Z,46.07
2023-04-12T15:10:46.656Z,46.69
2023-04-12T15:13:49.936Z,46.79
2023-04-12T15:16:53.646Z,46.72
2023-04-12T15:19:58.092Z,46.57
2023-04-12T15:23:01.181Z,46.94
2023-04-12T15:26:06.653Z,46.88
2023-04-12T15:29:09.625Z,46.79
2023-04-12T15:32:12.517Z,46.80
2023-04-12T15:35:25.972Z,46.75
2023-04-12T15:38:31.162Z,46.41
2023-04-12T15:41:37.861Z,46.44
2023-04-12T15:44:42.255Z,46.50
2023-04-12T15:47:45.926Z,46.81
2023-04-12T15:50:49.776Z,47.14
2023-04-12T15:53:53.308Z,47.36
2023-04-12T15:56:56.122Z,47.16
2023-04-12T15:59:59.896Z,47.12
2023-04-12T16:03:02.866Z,47.73
2023-04-12T16:06:06.271Z,47.96
2023-04-12T16:09:09.372Z,47.98
2023-04-12T16:12:12.252Z,47.85
2023-04-12T16:15:19.516Z,48.14
2023-04-12T16:18:22.503Z,48.56
2023-04-12T16:21:27.270Z,48.68
2023-04-12T16:24:30.306Z,48.94
2023-04-12T16:27:33.311Z,49.25
2023-04-12T16:30:36.719Z,49.58
2023-04-12T16:33:39.563Z,49.56
2023-04-12T16:36:43.155Z,50.02
2023-04-12T16:39:46.692Z,50.45
2023-04-12T16:42:49.611Z,50.59
2023-04-12T16:45:52.543Z,51.08
2023-04-12T16:48:55.506Z,51.41
2023-04-12T16:51:59.468Z,51.65
2023-04-12T16:55:02.992Z,52.03
2023-04-12T16:58:05.722Z,52.38
2023-04-12T17:01:09.519Z,52.69
2023-04-12T17:04:13.259Z,52.99
2023-04-12T17:07:17.452Z,53.64
2023-04-12T17:10:21.866Z,53.94
2023-04-12T17:13:24.683Z,54.33
2023-04-12T17:16:27.854Z,54.38
2023-04-12T17:19:31.038Z,54.83
2023-04-12T17:22:34.144Z,55.45
2023-04-12T17:25:37.112Z,55.98
2023-04-12T17:28:40.471Z,56.65
2023-04-12T17:31:45.622Z,57.15
2023-04-12T17:34:54.905Z,57.35
2023-04-12T17:37:57.723Z,57.66
2023-04-12T17:41:00.934Z,58.12
2023-04-12T17:44:04.142Z,58.36
2023-04-12T17:47:07.490Z,58.56
2023-04-12T17:50:11.693Z,58.83
2023-04-12T17:53:14.693Z,58.74
2023-04-12T17:56:17.872Z,59.06
2023-04-12T17:59:21.167Z,59.25
2023-04-12T18:02:24.169Z,59.67
2023-04-12T18:05:27.833Z,59.99
2023-04-12T18:08:31.026Z,59.91
2023-04-12T18:11:36.230Z,60.13
2023-04-12T18:14:41.107Z,60.32
2023-04-12T18:17:44.812Z,60.67
2023-04-12T18:20:47.729Z,60.79
2023-04-12T18:23:53.618Z,60.76
2023-04-12T18:26:59.194Z,61.12
2023-04-12T18:30:03.501Z,61.28
2023-04-12T18:33:08.179Z,61.57
2023-04-12T18:36:11.365Z,61.74
2023-04-12T18:39:14.408Z,61.92
2023-04-12T18:42:17.264Z,62.17
2023-04-12T18:45:20.463Z,62.11
2023-04-12T18:48:23.335Z,62.39
2023-04-12T18:51:26.503Z,62.66
2023-04-12T18:54:30.322Z,63.79
2023-04-12T18:57:33.550Z,63.74
2023-04-12T19:00:36.868Z,63.86
2023-04-12T19:03:39.921Z,63.95
2023-04-12T19:06:44.326Z,63.84
2023-04-12T19:09:47.503Z,64.92
2023-04-12T19:12:50.500Z,65.31
2023-04-12T19:15:55.865Z,65.18
2023-04-12T19:19:00.342Z,65.35
2023-04-12T19:22:03.614Z,65.50
2023-04-12T19:25:07.272Z,65.61
2023-04-12T19:28:11.360Z,65.74
2023-04-12T19:31:14.976Z,66.58
2023-04-12T19:34:18.533Z,66.26
2023-04-12T19:37:21.568Z,66.25
2023-04-12T19:40:24.448Z,67.47
2023-04-12T19:43:27.588Z,67.63
2023-04-12T19:46:30.830Z,67.78
2023-04-12T19:49:38.192Z,67.75
2023-04-12T19:52:42.784Z,67.78
2023-04-12T19:55:45.786Z,68.96
2023-04-12T19:58:49.724Z,68.75
2023-04-12T20:01:52.677Z,69.14
2023-04-12T20:04:55.509Z,69.31
2023-04-12T20:08:01.221Z,70.14
2023-04-12T20:11:04.311Z,70.33
2023-04-12T20:14:08.369Z,70.18
2023-04-12T20:17:12.265Z,72.72
2023-04-12T20:20:15.468Z,71.25
2023-04-12T20:23:18.406Z,71.61
2023-04-12T20:26:21.368Z,71.36
2023-04-12T20:29:24.559Z,71.24
2023-04-12T20:32:27.541Z,71.49
2023-04-12T20:35:30.523Z,71.18
2023-04-12T20:38:34.694Z,71.76
2023-04-12T20:41:38.570Z,72.31
2023-04-12T20:44:41.652Z,72.89
2023-04-12T20:47:44.973Z,73.10
2023-04-12T20:50:50.207Z,72.52
2023-04-12T20:53:53.860Z,73.27
2023-04-12T20:56:58.886Z,72.94
2023-04-12T21:00:02.276Z,73.68
2023-04-12T21:03:05.245Z,73.53
2023-04-12T21:06:12.188Z,73.64
2023-04-12T21:09:15.165Z,73.78
2023-04-12T21:12:18.390Z,73.87
2023-04-12T21:15:22.114Z,73.77
2023-04-12T21:18:25.224Z,73.27
2023-04-12T21:21:28.607Z,73.70
2023-04-12T21:24:35.508Z,73.77
2023-04-12T21:27:38.507Z,73.67
2023-04-12T21:30:42.124Z,73.82
2023-04-12T21:33:44.961Z,74.25
2023-04-12T21:36:47.809Z,74.13
2023-04-12T21:39:50.736Z,74.10
2023-04-12T21:42:53.718Z,74.17
2023-04-12T21:45:56.717Z,74.29
2023-04-12T21:49:00.030Z,74.07
2023-04-12T21:52:03.290Z,74.15
2023-04-12T21:55:06.668Z,74.20
2023-04-12T21:58:09.561Z,75.18
2023-04-12T22:01:12.724Z,74.10
2023-04-12T22:04:15.982Z,74.10
2023-04-12T22:07:19.077Z,73.67
2023-04-12T22:10:21.934Z,74.19
2023-04-12T22:13:24.819Z,74.60
2023-04-12T22:16:28.153Z,74.17
2023-04-12T22:19:31.086Z,74.52
2023-04-12T22:22:34.739Z,74.38
2023-04-12T22:25:37.527Z,74.64
2023-04-12T22:28:42.315Z,74.28
2023-04-12T22:31:45.698Z,74.38
2023-04-12T22:34:58.092Z,74.28
2023-04-12T22:38:08.351Z,74.40
2023-04-12T22:41:15.808Z,74.28
2023-04-12T22:44:22.329Z,74.18
2023-04-12T22:47:26.609Z,74.18
2023-04-12T22:50:29.708Z,74.08
2023-04-12T22:53:33.437Z,74.24
2023-04-12T22:56:41.904Z,74.00
2023-04-12T22:59:44.693Z,74.15
2023-04-12T23:02:48.718Z,73.81
2023-04-12T23:05:52.446Z,73.59
2023-04-12T23:08:57.556Z,73.23
2023-04-12T23:12:00.765Z,72.93
2023-04-12T23:15:06.211Z,72.92
2023-04-12T23:18:09.215Z,72.59
2023-04-12T23:21:12.288Z,72.58
2023-04-12T23:24:18.497Z,72.49
2023-04-12T23:27:22.822Z,72.40
2023-04-12T23:30:29.673Z,72.39
2023-04-12T23:33:32.822Z,72.19
2023-04-12T23:36:36.231Z,71.87
2023-04-12T23:39:39.149Z,71.78
2023-04-12T23:42:43.834Z,71.64
2023-04-12T23:45:46.750Z,71.59
2023-04-12T23:48:49.683Z,71.49
2023-04-12T23:51:52.534Z,71.38
2023-04-12T23:54:55.556Z,71.20
2023-04-12T23:57:58.363Z,70.95
